sensor_id;sensor_type;location;lat;lon;timestamp;P1;durP1;ratioP1;P2;durP2;ratioP2
76591;SDS011;65481;47.600;19.682;2024-01-15T00:01:27;35.38;;;11.75;;
76591;SDS011;65481;47.600;19.682;2024-01-15T00:06:28;32.70;;;12.75;;
76591;SDS011;65481;47.600;19.682;2024-01-15T00:11:28;28.45;;;11.32;;
76591;SDS011;65481;47.600;19.682;2024-01-15T00:16:29;29.05;;;11.77;;
76591;SDS011;65481;47.600;19.682;2024-01-15T00:21:29;32.65;;;13.13;;
76591;SDS011;65481;47.600;19.682;2024-01-15T00:26:30;44.60;;;14.50;;
76591;SDS011;65481;47.600;19.682;2024-01-15T00:31:30;37.28;;;13.75;;
76591;SDS011;65481;47.600;19.682;2024-01-15T00:36:30;44.50;;;16.50;;
76591;SDS011;65481;47.600;19.682;2024-01-15T00:41:31;34.90;;;14.20;;
76591;SDS011;65481;47.600;19.682;2024-01-15T00:46:32;30.70;;;13.30;;
76591;SDS011;65481;47.600;19.682;2024-01-15T00:51:32;38.17;;;14.40;;
76591;SDS011;65481;47.600;19.682;2024-01-15T00:56:32;30.35;;;13.00;;
76591;SDS011;65481;47.600;19.682;2024-01-15T01:01:33;28.48;;;13.30;;
76591;SDS011;65481;47.600;19.682;2024-01-15T01:06:34;38.92;;;12.18;;
76591;SDS011;65481;47.600;19.682;2024-01-15T01:11:34;30.92;;;13.15;;
76591;SDS011;65481;47.600;19.682;2024-01-15T01:16:35;29.80;;;13.25;;
76591;SDS011;65481;47.600;19.682;2024-01-15T01:21:38;34.30;;;13.05;;
76591;SDS011;65481;47.600;19.682;2024-01-15T01:26:39;36.97;;;13.32;;
76591;SDS011;65481;47.600;19.682;2024-01-15T01:31:48;41.47;;;14.27;;
76591;SDS011;65481;47.600;19.682;2024-01-15T01:36:50;32.83;;;14.20;;
76591;SDS011;65481;47.600;19.682;2024-01-15T01:41:50;38.42;;;14.98;;
76591;SDS011;65481;47.600;19.682;2024-01-15T01:46:50;116.03;;;29.38;;
76591;SDS011;65481;47.600;19.682;2024-01-15T01:51:51;46.33;;;18.60;;
76591;SDS011;65481;47.600;19.682;2024-01-15T01:56:52;42.50;;;15.35;;
76591;SDS011;65481;47.600;19.682;2024-01-15T02:01:54;36.00;;;14.25;;
76591;SDS011;65481;47.600;19.682;2024-01-15T02:06:55;36.42;;;13.05;;
76591;SDS011;65481;47.600;19.682;2024-01-15T02:11:55;38.88;;;15.38;;
76591;SDS011;65481;47.600;19.682;2024-01-15T02:16:56;39.88;;;15.38;;
76591;SDS011;65481;47.600;19.682;2024-01-15T02:21:56;36.47;;;14.88;;
76591;SDS011;65481;47.600;19.682;2024-01-15T02:26:57;34.72;;;13.45;;
76591;SDS011;65481;47.600;19.682;2024-01-15T02:31:57;33.97;;;14.27;;
76591;SDS011;65481;47.600;19.682;2024-01-15T02:36:58;31.75;;;14.07;;
76591;SDS011;65481;47.600;19.682;2024-01-15T02:41:58;33.97;;;13.75;;
76591;SDS011;65481;47.600;19.682;2024-01-15T02:46:59;34.58;;;14.73;;
76591;SDS011;65481;47.600;19.682;2024-01-15T02:51:59;31.58;;;13.23;;
76591;SDS011;65481;47.600;19.682;2024-01-15T02:57:00;26.50;;;11.90;;
76591;SDS011;65481;47.600;19.682;2024-01-15T03:02:00;31.73;;;12.45;;
76591;SDS011;65481;47.600;19.682;2024-01-15T03:07:01;36.85;;;13.30;;
76591;SDS011;65481;47.600;19.682;2024-01-15T03:12:01;32.85;;;12.40;;
76591;SDS011;65481;47.600;19.682;2024-01-15T03:17:02;37.97;;;13.63;;
76591;SDS011;65481;47.600;19.682;2024-01-15T03:22:02;34.90;;;14.43;;
76591;SDS011;65481;47.600;19.682;2024-01-15T03:27:03;61.50;;;22.10;;
76591;SDS011;65481;47.600;19.682;2024-01-15T03:32:04;49.78;;;16.55;;
76591;SDS011;65481;47.600;19.682;2024-01-15T03:37:04;66.05;;;24.42;;
76591;SDS011;65481;47.600;19.682;2024-01-15T03:42:06;40.95;;;14.88;;
76591;SDS011;65481;47.600;19.682;2024-01-15T03:47:06;35.80;;;14.70;;
76591;SDS011;65481;47.600;19.682;2024-01-15T03:52:07;34.92;;;13.27;;
76591;SDS011;65481;47.600;19.682;2024-01-15T03:57:07;30.20;;;13.02;;
76591;SDS011;65481;47.600;19.682;2024-01-15T04:02:08;38.15;;;14.80;;
76591;SDS011;65481;47.600;19.682;2024-01-15T04:07:09;33.38;;;13.80;;
76591;SDS011;65481;47.600;19.682;2024-01-15T04:12:09;98.55;;;26.25;;
76591;SDS011;65481;47.600;19.682;2024-01-15T04:17:10;44.85;;;17.42;;
76591;SDS011;65481;47.600;19.682;2024-01-15T04:22:10;41.45;;;15.57;;
76591;SDS011;65481;47.600;19.682;2024-01-15T04:27:11;63.88;;;23.70;;
76591;SDS011;65481;47.600;19.682;2024-01-15T04:32:12;41.40;;;16.05;;
76591;SDS011;65481;47.600;19.682;2024-01-15T04:37:13;41.08;;;15.93;;
76591;SDS011;65481;47.600;19.682;2024-01-15T04:42:14;46.33;;;17.38;;
76591;SDS011;65481;47.600;19.682;2024-01-15T04:47:14;41.20;;;16.85;;
76591;SDS011;65481;47.600;19.682;2024-01-15T04:52:15;41.35;;;16.15;;
76591;SDS011;65481;47.600;19.682;2024-01-15T04:57:15;54.22;;;18.13;;
76591;SDS011;65481;47.600;19.682;2024-01-15T05:02:16;48.85;;;18.60;;
76591;SDS011;65481;47.600;19.682;2024-01-15T05:07:16;31.85;;;13.70;;
76591;SDS011;65481;47.600;19.682;2024-01-15T05:12:17;41.25;;;17.25;;
76591;SDS011;65481;47.600;19.682;2024-01-15T05:17:17;32.15;;;13.77;;
76591;SDS011;65481;47.600;19.682;2024-01-15T05:22:18;30.38;;;12.98;;
76591;SDS011;65481;47.600;19.682;2024-01-15T05:27:18;32.38;;;11.73;;
76591;SDS011;65481;47.600;19.682;2024-01-15T05:32:19;31.40;;;12.80;;
76591;SDS011;65481;47.600;19.682;2024-01-15T05:37:19;33.55;;;12.55;;
76591;SDS011;65481;47.600;19.682;2024-01-15T05:42:19;33.13;;;15.05;;
76591;SDS011;65481;47.600;19.682;2024-01-15T05:47:20;37.67;;;13.60;;
76591;SDS011;65481;47.600;19.682;2024-01-15T05:52:20;28.70;;;12.10;;
76591;SDS011;65481;47.600;19.682;2024-01-15T05:57:21;27.90;;;11.85;;
76591;SDS011;65481;47.600;19.682;2024-01-15T06:02:22;33.13;;;12.57;;
76591;SDS011;65481;47.600;19.682;2024-01-15T06:07:23;38.55;;;13.60;;
76591;SDS011;65481;47.600;19.682;2024-01-15T06:12:24;48.85;;;15.40;;
76591;SDS011;65481;47.600;19.682;2024-01-15T06:17:24;45.38;;;18.48;;
76591;SDS011;65481;47.600;19.682;2024-01-15T06:22:25;51.15;;;19.30;;
76591;SDS011;65481;47.600;19.682;2024-01-15T06:27:28;51.95;;;20.35;;
76591;SDS011;65481;47.600;19.682;2024-01-15T06:32:29;44.42;;;19.50;;
76591;SDS011;65481;47.600;19.682;2024-01-15T06:37:30;43.92;;;16.77;;
76591;SDS011;65481;47.600;19.682;2024-01-15T06:42:32;34.47;;;15.93;;
76591;SDS011;65481;47.600;19.682;2024-01-15T06:47:33;46.60;;;17.02;;
76591;SDS011;65481;47.600;19.682;2024-01-15T06:52:33;38.53;;;15.43;;
76591;SDS011;65481;47.600;19.682;2024-01-15T06:57:34;38.30;;;16.25;;
76591;SDS011;65481;47.600;19.682;2024-01-15T07:02:35;57.33;;;22.80;;
76591;SDS011;65481;47.600;19.682;2024-01-15T07:07:35;54.45;;;19.35;;
76591;SDS011;65481;47.600;19.682;2024-01-15T07:12:36;40.60;;;15.40;;
76591;SDS011;65481;47.600;19.682;2024-01-15T07:17:36;34.22;;;13.60;;
76591;SDS011;65481;47.600;19.682;2024-01-15T07:22:41;30.45;;;14.13;;
76591;SDS011;65481;47.600;19.682;2024-01-15T07:27:41;31.20;;;14.88;;
76591;SDS011;65481;47.600;19.682;2024-01-15T07:32:44;34.85;;;13.98;;
76591;SDS011;65481;47.600;19.682;2024-01-15T07:37:45;32.40;;;14.07;;
76591;SDS011;65481;47.600;19.682;2024-01-15T07:42:46;31.48;;;13.30;;
76591;SDS011;65481;47.600;19.682;2024-01-15T07:47:47;35.00;;;14.93;;
76591;SDS011;65481;47.600;19.682;2024-01-15T07:52:49;53.97;;;15.82;;
76591;SDS011;65481;47.600;19.682;2024-01-15T07:57:49;41.50;;;17.02;;
76591;SDS011;65481;47.600;19.682;2024-01-15T08:02:51;37.60;;;14.95;;
76591;SDS011;65481;47.600;19.682;2024-01-15T08:07:53;43.15;;;15.48;;
76591;SDS011;65481;47.600;19.682;2024-01-15T08:12:53;44.03;;;18.50;;
76591;SDS011;65481;47.600;19.682;2024-01-15T08:17:54;62.15;;;24.63;;
76591;SDS011;65481;47.600;19.682;2024-01-15T08:22:54;72.10;;;26.08;;
76591;SDS011;65481;47.600;19.682;2024-01-15T08:27:58;61.03;;;23.60;;
76591;SDS011;65481;47.600;19.682;2024-01-15T08:32:59;53.58;;;21.10;;
76591;SDS011;65481;47.600;19.682;2024-01-15T08:38:00;41.88;;;18.25;;
76591;SDS011;65481;47.600;19.682;2024-01-15T08:43:01;39.20;;;16.58;;
76591;SDS011;65481;47.600;19.682;2024-01-15T08:48:02;38.17;;;17.77;;
76591;SDS011;65481;47.600;19.682;2024-01-15T08:53:03;35.97;;;17.63;;
76591;SDS011;65481;47.600;19.682;2024-01-15T08:58:04;32.50;;;15.73;;
76591;SDS011;65481;47.600;19.682;2024-01-15T09:03:06;29.85;;;14.43;;
76591;SDS011;65481;47.600;19.682;2024-01-15T09:08:08;29.80;;;13.32;;
76591;SDS011;65481;47.600;19.682;2024-01-15T09:13:09;29.30;;;12.95;;
76591;SDS011;65481;47.600;19.682;2024-01-15T09:18:09;24.52;;;11.65;;
76591;SDS011;65481;47.600;19.682;2024-01-15T09:23:10;27.77;;;11.93;;
76591;SDS011;65481;47.600;19.682;2024-01-15T09:28:11;18.48;;;9.48;;
76591;SDS011;65481;47.600;19.682;2024-01-15T09:33:12;22.33;;;9.65;;
76591;SDS011;65481;47.600;19.682;2024-01-15T09:38:12;20.65;;;9.18;;
76591;SDS011;65481;47.600;19.682;2024-01-15T09:43:13;27.67;;;11.88;;
76591;SDS011;65481;47.600;19.682;2024-01-15T09:48:15;22.55;;;10.65;;
76591;SDS011;65481;47.600;19.682;2024-01-15T09:53:16;21.33;;;9.93;;
76591;SDS011;65481;47.600;19.682;2024-01-15T09:58:19;17.77;;;8.55;;
76591;SDS011;65481;47.600;19.682;2024-01-15T10:03:19;18.25;;;7.95;;
76591;SDS011;65481;47.600;19.682;2024-01-15T10:08:21;19.75;;;9.05;;
76591;SDS011;65481;47.600;19.682;2024-01-15T10:13:23;23.50;;;9.05;;
76591;SDS011;65481;47.600;19.682;2024-01-15T10:18:23;17.20;;;8.05;;
76591;SDS011;65481;47.600;19.682;2024-01-15T10:23:24;19.98;;;8.45;;
76591;SDS011;65481;47.600;19.682;2024-01-15T10:28:25;18.60;;;7.68;;
76591;SDS011;65481;47.600;19.682;2024-01-15T10:33:26;15.75;;;7.93;;
76591;SDS011;65481;47.600;19.682;2024-01-15T10:38:27;15.82;;;8.02;;
76591;SDS011;65481;47.600;19.682;2024-01-15T10:43:28;14.88;;;6.97;;
76591;SDS011;65481;47.600;19.682;2024-01-15T10:48:28;14.52;;;6.35;;
76591;SDS011;65481;47.600;19.682;2024-01-15T10:53:30;14.18;;;6.85;;
76591;SDS011;65481;47.600;19.682;2024-01-15T10:58:33;11.27;;;5.68;;
76591;SDS011;65481;47.600;19.682;2024-01-15T11:03:35;18.55;;;8.25;;
76591;SDS011;65481;47.600;19.682;2024-01-15T11:08:36;14.20;;;5.70;;
76591;SDS011;65481;47.600;19.682;2024-01-15T11:18:41;13.57;;;6.30;;
76591;SDS011;65481;47.600;19.682;2024-01-15T11:24:00;9.30;;;5.05;;
76591;SDS011;65481;47.600;19.682;2024-01-15T11:29:05;11.73;;;5.43;;
76591;SDS011;65481;47.600;19.682;2024-01-15T11:34:12;15.65;;;6.38;;
76591;SDS011;65481;47.600;19.682;2024-01-15T11:44:28;10.80;;;5.15;;
76591;SDS011;65481;47.600;19.682;2024-01-15T11:54:43;10.75;;;4.90;;
76591;SDS011;65481;47.600;19.682;2024-01-15T12:00:04;11.65;;;5.50;;
76591;SDS011;65481;47.600;19.682;2024-01-15T12:05:07;10.55;;;5.35;;
76591;SDS011;65481;47.600;19.682;2024-01-15T12:10:11;12.27;;;4.97;;
76591;SDS011;65481;47.600;19.682;2024-01-15T12:15:13;11.38;;;4.68;;
76591;SDS011;65481;47.600;19.682;2024-01-15T12:20:14;26.63;;;9.45;;
76591;SDS011;65481;47.600;19.682;2024-01-15T12:25:16;13.15;;;5.82;;
76591;SDS011;65481;47.600;19.682;2024-01-15T12:30:16;8.35;;;4.07;;
76591;SDS011;65481;47.600;19.682;2024-01-15T12:35:17;6.95;;;3.65;;
76591;SDS011;65481;47.600;19.682;2024-01-15T12:40:18;8.27;;;4.30;;
76591;SDS011;65481;47.600;19.682;2024-01-15T12:45:20;9.07;;;4.35;;
76591;SDS011;65481;47.600;19.682;2024-01-15T12:50:23;7.75;;;3.65;;
76591;SDS011;65481;47.600;19.682;2024-01-15T12:55:24;12.43;;;5.75;;
76591;SDS011;65481;47.600;19.682;2024-01-15T13:00:25;6.35;;;3.22;;
76591;SDS011;65481;47.600;19.682;2024-01-15T13:05:26;6.93;;;3.35;;
76591;SDS011;65481;47.600;19.682;2024-01-15T13:10:27;16.05;;;6.85;;
76591;SDS011;65481;47.600;19.682;2024-01-15T13:15:30;6.45;;;3.30;;
76591;SDS011;65481;47.600;19.682;2024-01-15T13:20:31;8.05;;;4.03;;
76591;SDS011;65481;47.600;19.682;2024-01-15T13:25:32;9.60;;;5.40;;
76591;SDS011;65481;47.600;19.682;2024-01-15T13:30:35;7.95;;;4.13;;
76591;SDS011;65481;47.600;19.682;2024-01-15T13:35:36;7.97;;;3.85;;
76591;SDS011;65481;47.600;19.682;2024-01-15T13:40:37;17.17;;;7.80;;
76591;SDS011;65481;47.600;19.682;2024-01-15T13:45:37;15.73;;;7.30;;
76591;SDS011;65481;47.600;19.682;2024-01-15T13:50:38;30.10;;;10.55;;
76591;SDS011;65481;47.600;19.682;2024-01-15T13:55:38;40.97;;;19.95;;
76591;SDS011;65481;47.600;19.682;2024-01-15T14:00:39;18.13;;;9.70;;
76591;SDS011;65481;47.600;19.682;2024-01-15T14:05:40;7.70;;;3.80;;
76591;SDS011;65481;47.600;19.682;2024-01-15T14:10:41;7.15;;;3.63;;
76591;SDS011;65481;47.600;19.682;2024-01-15T14:15:41;6.72;;;2.97;;
76591;SDS011;65481;47.600;19.682;2024-01-15T14:20:41;6.00;;;3.00;;
76591;SDS011;65481;47.600;19.682;2024-01-15T14:25:43;8.65;;;3.72;;
76591;SDS011;65481;47.600;19.682;2024-01-15T14:30:44;6.55;;;3.47;;
76591;SDS011;65481;47.600;19.682;2024-01-15T14:35:45;11.13;;;4.53;;
76591;SDS011;65481;47.600;19.682;2024-01-15T14:40:45;22.00;;;9.05;;
76591;SDS011;65481;47.600;19.682;2024-01-15T14:45:46;20.63;;;7.05;;
76591;SDS011;65481;47.600;19.682;2024-01-15T14:50:47;11.38;;;4.20;;
76591;SDS011;65481;47.600;19.682;2024-01-15T14:55:47;15.55;;;7.57;;
76591;SDS011;65481;47.600;19.682;2024-01-15T15:00:48;10.52;;;4.68;;
76591;SDS011;65481;47.600;19.682;2024-01-15T15:05:49;21.13;;;9.10;;
76591;SDS011;65481;47.600;19.682;2024-01-15T15:10:49;37.58;;;16.63;;
76591;SDS011;65481;47.600;19.682;2024-01-15T15:15:50;26.20;;;10.38;;
76591;SDS011;65481;47.600;19.682;2024-01-15T15:20:50;13.15;;;5.47;;
76591;SDS011;65481;47.600;19.682;2024-01-15T15:25:51;8.10;;;3.50;;
76591;SDS011;65481;47.600;19.682;2024-01-15T15:30:51;9.13;;;4.07;;
76591;SDS011;65481;47.600;19.682;2024-01-15T15:35:52;7.57;;;4.00;;
76591;SDS011;65481;47.600;19.682;2024-01-15T15:40:53;11.10;;;3.58;;
76591;SDS011;65481;47.600;19.682;2024-01-15T15:45:54;10.07;;;4.70;;
76591;SDS011;65481;47.600;19.682;2024-01-15T15:50:54;11.75;;;5.05;;
76591;SDS011;65481;47.600;19.682;2024-01-15T15:55:55;17.20;;;8.30;;
76591;SDS011;65481;47.600;19.682;2024-01-15T16:00:56;20.02;;;6.70;;
76591;SDS011;65481;47.600;19.682;2024-01-15T16:05:56;13.52;;;6.32;;
76591;SDS011;65481;47.600;19.682;2024-01-15T16:10:57;12.65;;;4.93;;
76591;SDS011;65481;47.600;19.682;2024-01-15T16:15:59;12.15;;;5.93;;
76591;SDS011;65481;47.600;19.682;2024-01-15T16:21:00;11.55;;;4.13;;
76591;SDS011;65481;47.600;19.682;2024-01-15T16:26:01;8.98;;;4.40;;
76591;SDS011;65481;47.600;19.682;2024-01-15T16:31:02;12.52;;;3.10;;
76591;SDS011;65481;47.600;19.682;2024-01-15T16:36:03;11.88;;;4.47;;
76591;SDS011;65481;47.600;19.682;2024-01-15T16:41:04;17.52;;;9.25;;
76591;SDS011;65481;47.600;19.682;2024-01-15T16:46:05;18.25;;;9.73;;
76591;SDS011;65481;47.600;19.682;2024-01-15T16:51:05;14.75;;;6.80;;
76591;SDS011;65481;47.600;19.682;2024-01-15T16:56:06;11.80;;;5.30;;
76591;SDS011;65481;47.600;19.682;2024-01-15T17:01:06;11.65;;;4.43;;
76591;SDS011;65481;47.600;19.682;2024-01-15T17:06:08;10.25;;;4.40;;
76591;SDS011;65481;47.600;19.682;2024-01-15T17:11:08;9.45;;;3.22;;
76591;SDS011;65481;47.600;19.682;2024-01-15T17:16:09;10.57;;;4.38;;
76591;SDS011;65481;47.600;19.682;2024-01-15T17:21:10;12.00;;;4.07;;
76591;SDS011;65481;47.600;19.682;2024-01-15T17:26:10;10.18;;;4.00;;
76591;SDS011;65481;47.600;19.682;2024-01-15T17:31:11;7.82;;;3.80;;
76591;SDS011;65481;47.600;19.682;2024-01-15T17:36:12;7.22;;;3.67;;
76591;SDS011;65481;47.600;19.682;2024-01-15T17:41:13;10.02;;;3.72;;
76591;SDS011;65481;47.600;19.682;2024-01-15T17:46:13;8.88;;;4.05;;
76591;SDS011;65481;47.600;19.682;2024-01-15T17:51:17;9.38;;;3.47;;
76591;SDS011;65481;47.600;19.682;2024-01-15T17:56:19;11.40;;;4.97;;
76591;SDS011;65481;47.600;19.682;2024-01-15T18:01:19;7.40;;;3.92;;
76591;SDS011;65481;47.600;19.682;2024-01-15T18:06:20;10.05;;;4.60;;
76591;SDS011;65481;47.600;19.682;2024-01-15T18:11:20;13.25;;;4.82;;
76591;SDS011;65481;47.600;19.682;2024-01-15T18:16:21;10.88;;;4.47;;
76591;SDS011;65481;47.600;19.682;2024-01-15T18:21:25;7.13;;;3.20;;
76591;SDS011;65481;47.600;19.682;2024-01-15T18:26:25;8.30;;;3.22;;
76591;SDS011;65481;47.600;19.682;2024-01-15T18:31:26;9.02;;;3.85;;
76591;SDS011;65481;47.600;19.682;2024-01-15T18:36:27;11.55;;;3.97;;
76591;SDS011;65481;47.600;19.682;2024-01-15T18:41:28;7.55;;;3.45;;
76591;SDS011;65481;47.600;19.682;2024-01-15T18:46:28;5.95;;;2.92;;
76591;SDS011;65481;47.600;19.682;2024-01-15T18:51:29;5.43;;;3.10;;
76591;SDS011;65481;47.600;19.682;2024-01-15T18:56:30;4.50;;;2.70;;
76591;SDS011;65481;47.600;19.682;2024-01-15T19:01:31;8.68;;;3.25;;
76591;SDS011;65481;47.600;19.682;2024-01-15T19:06:36;6.93;;;2.92;;
76591;SDS011;65481;47.600;19.682;2024-01-15T19:11:36;4.18;;;2.70;;
76591;SDS011;65481;47.600;19.682;2024-01-15T19:16:38;4.85;;;2.83;;
76591;SDS011;65481;47.600;19.682;2024-01-15T19:21:39;10.02;;;3.55;;
76591;SDS011;65481;47.600;19.682;2024-01-15T19:26:39;5.40;;;2.70;;
76591;SDS011;65481;47.600;19.682;2024-01-15T19:31:40;7.82;;;3.65;;
76591;SDS011;65481;47.600;19.682;2024-01-15T19:36:40;7.75;;;3.50;;
76591;SDS011;65481;47.600;19.682;2024-01-15T19:41:41;8.23;;;4.03;;
76591;SDS011;65481;47.600;19.682;2024-01-15T19:46:42;6.22;;;3.50;;
76591;SDS011;65481;47.600;19.682;2024-01-15T19:51:43;8.60;;;3.55;;
76591;SDS011;65481;47.600;19.682;2024-01-15T19:56:43;6.93;;;3.58;;
76591;SDS011;65481;47.600;19.682;2024-01-15T20:01:44;8.90;;;3.53;;
76591;SDS011;65481;47.600;19.682;2024-01-15T20:06:44;10.38;;;3.20;;
76591;SDS011;65481;47.600;19.682;2024-01-15T20:11:45;5.32;;;3.10;;
76591;SDS011;65481;47.600;19.682;2024-01-15T20:16:46;8.85;;;3.13;;
76591;SDS011;65481;47.600;19.682;2024-01-15T20:21:47;6.38;;;2.40;;
76591;SDS011;65481;47.600;19.682;2024-01-15T20:26:48;5.22;;;2.85;;
76591;SDS011;65481;47.600;19.682;2024-01-15T20:31:49;6.65;;;2.60;;
76591;SDS011;65481;47.600;19.682;2024-01-15T20:36:50;5.35;;;2.55;;
76591;SDS011;65481;47.600;19.682;2024-01-15T20:41:51;6.82;;;2.25;;
76591;SDS011;65481;47.600;19.682;2024-01-15T20:46:51;4.22;;;2.30;;
76591;SDS011;65481;47.600;19.682;2024-01-15T20:51:52;3.70;;;2.13;;
76591;SDS011;65481;47.600;19.682;2024-01-15T20:56:52;5.20;;;2.38;;
76591;SDS011;65481;47.600;19.682;2024-01-15T21:01:53;6.65;;;2.83;;
76591;SDS011;65481;47.600;19.682;2024-01-15T21:06:54;7.13;;;2.38;;
76591;SDS011;65481;47.600;19.682;2024-01-15T21:11:58;6.07;;;2.83;;
76591;SDS011;65481;47.600;19.682;2024-01-15T21:16:58;5.57;;;2.35;;
76591;SDS011;65481;47.600;19.682;2024-01-15T21:21:59;8.57;;;3.22;;
76591;SDS011;65481;47.600;19.682;2024-01-15T21:26:59;4.00;;;2.38;;
76591;SDS011;65481;47.600;19.682;2024-01-15T21:32:00;3.45;;;2.08;;
76591;SDS011;65481;47.600;19.682;2024-01-15T21:37:00;5.82;;;2.30;;
76591;SDS011;65481;47.600;19.682;2024-01-15T21:42:01;4.85;;;2.97;;
76591;SDS011;65481;47.600;19.682;2024-01-15T21:47:02;5.20;;;2.28;;
76591;SDS011;65481;47.600;19.682;2024-01-15T21:52:03;5.82;;;2.55;;
76591;SDS011;65481;47.600;19.682;2024-01-15T21:57:04;3.88;;;2.40;;
76591;SDS011;65481;47.600;19.682;2024-01-15T22:02:05;5.05;;;2.40;;
76591;SDS011;65481;47.600;19.682;2024-01-15T22:07:08;5.10;;;2.55;;
76591;SDS011;65481;47.600;19.682;2024-01-15T22:12:09;3.60;;;1.80;;
76591;SDS011;65481;47.600;19.682;2024-01-15T22:17:10;3.35;;;2.47;;
76591;SDS011;65481;47.600;19.682;2024-01-15T22:22:10;5.13;;;2.20;;
76591;SDS011;65481;47.600;19.682;2024-01-15T22:27:11;4.47;;;2.65;;
76591;SDS011;65481;47.600;19.682;2024-01-15T22:32:12;3.47;;;2.38;;
76591;SDS011;65481;47.600;19.682;2024-01-15T22:37:12;4.45;;;2.15;;
76591;SDS011;65481;47.600;19.682;2024-01-15T22:42:14;4.60;;;2.63;;
76591;SDS011;65481;47.600;19.682;2024-01-15T22:47:14;5.30;;;3.22;;
76591;SDS011;65481;47.600;19.682;2024-01-15T22:52:14;8.73;;;4.72;;
76591;SDS011;65481;47.600;19.682;2024-01-15T22:57:15;9.07;;;5.43;;
76591;SDS011;65481;47.600;19.682;2024-01-15T23:02:16;6.40;;;3.67;;
76591;SDS011;65481;47.600;19.682;2024-01-15T23:07:18;5.85;;;2.80;;
76591;SDS011;65481;47.600;19.682;2024-01-15T23:12:18;3.30;;;2.33;;
76591;SDS011;65481;47.600;19.682;2024-01-15T23:17:20;4.15;;;2.15;;
76591;SDS011;65481;47.600;19.682;2024-01-15T23:22:20;7.20;;;2.40;;
76591;SDS011;65481;47.600;19.682;2024-01-15T23:27:21;3.65;;;2.22;;
76591;SDS011;65481;47.600;19.682;2024-01-15T23:32:22;6.28;;;1.95;;
76591;SDS011;65481;47.600;19.682;2024-01-15T23:37:23;6.30;;;2.70;;
76591;SDS011;65481;47.600;19.682;2024-01-15T23:42:24;3.50;;;1.73;;
76591;SDS011;65481;47.600;19.682;2024-01-15T23:47:25;5.47;;;2.35;;
76591;SDS011;65481;47.600;19.682;2024-01-15T23:52:26;5.50;;;2.20;;
76591;SDS011;65481;47.600;19.682;2024-01-15T23:57:26;2.90;;;2.10;;
